sensor_id;sensor_type;location;lat;lon;timestamp;P1;durP1;ratioP1;P2;durP2;ratioP2
35326;SDS011;21436;52.348;20.928;2024-03-02T00:00:25;68.43;;;31.50;;
35326;SDS011;21436;52.348;20.928;2024-03-02T00:03:15;77.80;;;34.58;;
35326;SDS011;21436;52.348;20.928;2024-03-02T00:05:48;73.15;;;32.42;;
35326;SDS011;21436;52.348;20.928;2024-03-02T00:08:24;81.15;;;36.25;;
35326;SDS011;21436;52.348;20.928;2024-03-02T00:10:57;81.60;;;37.17;;
35326;SDS011;21436;52.348;20.928;2024-03-02T00:13:27;81.47;;;34.15;;
35326;SDS011;21436;52.348;20.928;2024-03-02T00:15:56;74.75;;;34.05;;
35326;SDS011;21436;52.348;20.928;2024-03-02T00:18:25;69.70;;;31.60;;
35326;SDS011;21436;52.348;20.928;2024-03-02T00:21:13;67.30;;;30.80;;
35326;SDS011;21436;52.348;20.928;2024-03-02T00:23:42;71.45;;;32.72;;
35326;SDS011;21436;52.348;20.928;2024-03-02T00:26:11;70.32;;;33.10;;
35326;SDS011;21436;52.348;20.928;2024-03-02T00:28:39;65.30;;;29.13;;
35326;SDS011;21436;52.348;20.928;2024-03-02T00:31:09;73.60;;;33.00;;
35326;SDS011;21436;52.348;20.928;2024-03-02T00:33:43;70.40;;;30.58;;
35326;SDS011;21436;52.348;20.928;2024-03-02T00:36:16;64.00;;;29.48;;
35326;SDS011;21436;52.348;20.928;2024-03-02T00:38:51;68.13;;;31.95;;
35326;SDS011;21436;52.348;20.928;2024-03-02T00:41:22;72.57;;;31.58;;
35326;SDS011;21436;52.348;20.928;2024-03-02T00:43:57;70.95;;;30.27;;
35326;SDS011;21436;52.348;20.928;2024-03-02T00:46:27;73.53;;;31.25;;
35326;SDS011;21436;52.348;20.928;2024-03-02T00:48:59;65.70;;;30.60;;
35326;SDS011;21436;52.348;20.928;2024-03-02T00:51:29;76.93;;;32.80;;
35326;SDS011;21436;52.348;20.928;2024-03-02T00:54:03;62.90;;;29.92;;
35326;SDS011;21436;52.348;20.928;2024-03-02T00:56:33;71.95;;;31.08;;
35326;SDS011;21436;52.348;20.928;2024-03-02T00:59:02;74.30;;;31.85;;
35326;SDS011;21436;52.348;20.928;2024-03-02T01:01:30;75.78;;;32.45;;
35326;SDS011;21436;52.348;20.928;2024-03-02T01:03:59;67.32;;;30.50;;
35326;SDS011;21436;52.348;20.928;2024-03-02T01:06:29;64.80;;;29.73;;
35326;SDS011;21436;52.348;20.928;2024-03-02T01:08:58;67.47;;;32.40;;
35326;SDS011;21436;52.348;20.928;2024-03-02T01:11:27;74.15;;;31.92;;
35326;SDS011;21436;52.348;20.928;2024-03-02T01:13:56;73.03;;;31.10;;
35326;SDS011;21436;52.348;20.928;2024-03-02T01:16:25;68.03;;;30.92;;
35326;SDS011;21436;52.348;20.928;2024-03-02T01:18:53;76.68;;;33.45;;
35326;SDS011;21436;52.348;20.928;2024-03-02T01:21:22;69.05;;;32.25;;
35326;SDS011;21436;52.348;20.928;2024-03-02T01:23:50;84.90;;;36.13;;
35326;SDS011;21436;52.348;20.928;2024-03-02T01:26:19;72.22;;;31.42;;
35326;SDS011;21436;52.348;20.928;2024-03-02T01:28:47;77.38;;;34.88;;
35326;SDS011;21436;52.348;20.928;2024-03-02T01:31:17;74.38;;;34.05;;
35326;SDS011;21436;52.348;20.928;2024-03-02T01:33:44;69.68;;;30.98;;
35326;SDS011;21436;52.348;20.928;2024-03-02T01:36:14;72.45;;;31.27;;
35326;SDS011;21436;52.348;20.928;2024-03-02T01:38:41;73.35;;;33.65;;
35326;SDS011;21436;52.348;20.928;2024-03-02T01:41:10;79.95;;;33.72;;
35326;SDS011;21436;52.348;20.928;2024-03-02T01:43:40;71.70;;;32.67;;
35326;SDS011;21436;52.348;20.928;2024-03-02T01:46:09;80.90;;;34.35;;
35326;SDS011;21436;52.348;20.928;2024-03-02T01:48:37;73.35;;;32.53;;
35326;SDS011;21436;52.348;20.928;2024-03-02T01:51:07;80.20;;;33.50;;
35326;SDS011;21436;52.348;20.928;2024-03-02T01:53:38;71.95;;;32.53;;
35326;SDS011;21436;52.348;20.928;2024-03-02T01:56:06;66.00;;;33.15;;
35326;SDS011;21436;52.348;20.928;2024-03-02T01:58:35;72.72;;;32.70;;
35326;SDS011;21436;52.348;20.928;2024-03-02T02:01:04;65.20;;;29.85;;
35326;SDS011;21436;52.348;20.928;2024-03-02T02:03:33;72.72;;;32.08;;
35326;SDS011;21436;52.348;20.928;2024-03-02T02:06:01;74.78;;;33.25;;
35326;SDS011;21436;52.348;20.928;2024-03-02T02:08:30;77.72;;;34.35;;
35326;SDS011;21436;52.348;20.928;2024-03-02T02:10:58;71.22;;;32.00;;
35326;SDS011;21436;52.348;20.928;2024-03-02T02:13:27;75.95;;;33.10;;
35326;SDS011;21436;52.348;20.928;2024-03-02T02:16:03;75.32;;;33.30;;
35326;SDS011;21436;52.348;20.928;2024-03-02T02:18:34;63.65;;;28.42;;
35326;SDS011;21436;52.348;20.928;2024-03-02T02:21:07;71.47;;;31.25;;
35326;SDS011;21436;52.348;20.928;2024-03-02T02:23:35;71.22;;;32.33;;
35326;SDS011;21436;52.348;20.928;2024-03-02T02:26:04;67.18;;;30.80;;
35326;SDS011;21436;52.348;20.928;2024-03-02T02:28:32;73.40;;;33.30;;
35326;SDS011;21436;52.348;20.928;2024-03-02T02:31:01;65.00;;;30.15;;
35326;SDS011;21436;52.348;20.928;2024-03-02T02:33:31;69.97;;;31.80;;
35326;SDS011;21436;52.348;20.928;2024-03-02T02:36:00;61.95;;;31.13;;
35326;SDS011;21436;52.348;20.928;2024-03-02T02:38:28;70.22;;;30.55;;
35326;SDS011;21436;52.348;20.928;2024-03-02T02:40:57;65.80;;;29.92;;
35326;SDS011;21436;52.348;20.928;2024-03-02T02:43:26;66.82;;;29.77;;
35326;SDS011;21436;52.348;20.928;2024-03-02T02:45:54;67.07;;;30.95;;
35326;SDS011;21436;52.348;20.928;2024-03-02T02:48:23;64.00;;;30.42;;
35326;SDS011;21436;52.348;20.928;2024-03-02T02:50:51;65.05;;;29.55;;
35326;SDS011;21436;52.348;20.928;2024-03-02T02:53:20;74.18;;;32.83;;
35326;SDS011;21436;52.348;20.928;2024-03-02T02:55:49;62.78;;;27.27;;
35326;SDS011;21436;52.348;20.928;2024-03-02T02:58:20;64.18;;;29.50;;
35326;SDS011;21436;52.348;20.928;2024-03-02T03:00:50;59.55;;;28.33;;
35326;SDS011;21436;52.348;20.928;2024-03-02T03:03:20;64.38;;;29.08;;
35326;SDS011;21436;52.348;20.928;2024-03-02T03:05:48;58.05;;;27.98;;
35326;SDS011;21436;52.348;20.928;2024-03-02T03:08:17;61.28;;;28.40;;
35326;SDS011;21436;52.348;20.928;2024-03-02T03:10:47;64.25;;;30.88;;
35326;SDS011;21436;52.348;20.928;2024-03-02T03:13:16;56.53;;;27.90;;
35326;SDS011;21436;52.348;20.928;2024-03-02T03:15:45;62.83;;;28.25;;
35326;SDS011;21436;52.348;20.928;2024-03-02T03:18:13;60.72;;;26.60;;
35326;SDS011;21436;52.348;20.928;2024-03-02T03:20:42;63.83;;;26.15;;
35326;SDS011;21436;52.348;20.928;2024-03-02T03:23:11;62.08;;;28.67;;
35326;SDS011;21436;52.348;20.928;2024-03-02T03:25:43;55.72;;;28.08;;
35326;SDS011;21436;52.348;20.928;2024-03-02T03:28:12;56.92;;;26.60;;
35326;SDS011;21436;52.348;20.928;2024-03-02T03:30:41;56.05;;;26.65;;
35326;SDS011;21436;52.348;20.928;2024-03-02T03:33:09;61.90;;;28.20;;
35326;SDS011;21436;52.348;20.928;2024-03-02T03:35:38;60.58;;;27.85;;
35326;SDS011;21436;52.348;20.928;2024-03-02T03:38:06;59.35;;;27.00;;
35326;SDS011;21436;52.348;20.928;2024-03-02T03:40:35;55.20;;;24.95;;
35326;SDS011;21436;52.348;20.928;2024-03-02T03:43:03;56.17;;;27.20;;
35326;SDS011;21436;52.348;20.928;2024-03-02T03:45:32;58.88;;;27.30;;
35326;SDS011;21436;52.348;20.928;2024-03-02T03:48:01;60.55;;;25.88;;
35326;SDS011;21436;52.348;20.928;2024-03-02T03:50:30;62.25;;;27.65;;
35326;SDS011;21436;52.348;20.928;2024-03-02T03:52:59;67.70;;;29.50;;
35326;SDS011;21436;52.348;20.928;2024-03-02T03:55:27;59.28;;;28.15;;
35326;SDS011;21436;52.348;20.928;2024-03-02T03:57:55;58.53;;;27.08;;
35326;SDS011;21436;52.348;20.928;2024-03-02T04:00:24;58.03;;;27.65;;
35326;SDS011;21436;52.348;20.928;2024-03-02T04:02:53;58.58;;;27.00;;
35326;SDS011;21436;52.348;20.928;2024-03-02T04:05:22;60.10;;;26.15;;
35326;SDS011;21436;52.348;20.928;2024-03-02T04:07:51;60.60;;;26.90;;
35326;SDS011;21436;52.348;20.928;2024-03-02T04:10:19;59.50;;;26.25;;
35326;SDS011;21436;52.348;20.928;2024-03-02T04:12:49;61.08;;;26.77;;
35326;SDS011;21436;52.348;20.928;2024-03-02T04:15:18;57.38;;;28.15;;
35326;SDS011;21436;52.348;20.928;2024-03-02T04:17:47;65.40;;;29.10;;
35326;SDS011;21436;52.348;20.928;2024-03-02T04:20:16;64.90;;;30.02;;
35326;SDS011;21436;52.348;20.928;2024-03-02T04:22:44;70.22;;;30.42;;
35326;SDS011;21436;52.348;20.928;2024-03-02T04:25:12;70.70;;;30.02;;
35326;SDS011;21436;52.348;20.928;2024-03-02T04:27:41;66.25;;;28.67;;
35326;SDS011;21436;52.348;20.928;2024-03-02T04:30:09;64.72;;;28.42;;
35326;SDS011;21436;52.348;20.928;2024-03-02T04:32:38;65.43;;;26.95;;
35326;SDS011;21436;52.348;20.928;2024-03-02T04:35:08;57.65;;;27.65;;
35326;SDS011;21436;52.348;20.928;2024-03-02T04:37:38;62.92;;;28.10;;
35326;SDS011;21436;52.348;20.928;2024-03-02T04:40:06;62.88;;;29.00;;
35326;SDS011;21436;52.348;20.928;2024-03-02T04:42:38;64.65;;;28.83;;
35326;SDS011;21436;52.348;20.928;2024-03-02T04:45:07;64.30;;;28.63;;
35326;SDS011;21436;52.348;20.928;2024-03-02T04:47:37;63.70;;;29.38;;
35326;SDS011;21436;52.348;20.928;2024-03-02T04:50:05;67.18;;;27.00;;
35326;SDS011;21436;52.348;20.928;2024-03-02T04:52:35;63.92;;;28.00;;
35326;SDS011;21436;52.348;20.928;2024-03-02T04:55:04;63.75;;;29.17;;
35326;SDS011;21436;52.348;20.928;2024-03-02T04:57:45;59.28;;;26.92;;
35326;SDS011;21436;52.348;20.928;2024-03-02T05:00:15;66.90;;;29.00;;
35326;SDS011;21436;52.348;20.928;2024-03-02T05:02:44;62.63;;;27.52;;
35326;SDS011;21436;52.348;20.928;2024-03-02T05:05:12;64.95;;;29.35;;
35326;SDS011;21436;52.348;20.928;2024-03-02T05:07:43;68.57;;;27.88;;
35326;SDS011;21436;52.348;20.928;2024-03-02T05:10:12;62.05;;;27.88;;
35326;SDS011;21436;52.348;20.928;2024-03-02T05:12:40;69.53;;;30.45;;
35326;SDS011;21436;52.348;20.928;2024-03-02T05:15:13;72.22;;;30.15;;
35326;SDS011;21436;52.348;20.928;2024-03-02T05:17:42;61.60;;;28.38;;
35326;SDS011;21436;52.348;20.928;2024-03-02T05:20:12;66.05;;;29.35;;
35326;SDS011;21436;52.348;20.928;2024-03-02T05:22:40;60.92;;;27.48;;
35326;SDS011;21436;52.348;20.928;2024-03-02T05:25:09;77.07;;;32.50;;
35326;SDS011;21436;52.348;20.928;2024-03-02T05:27:38;64.53;;;28.65;;
35326;SDS011;21436;52.348;20.928;2024-03-02T05:30:07;65.45;;;28.70;;
35326;SDS011;21436;52.348;20.928;2024-03-02T05:32:37;76.70;;;34.30;;
35326;SDS011;21436;52.348;20.928;2024-03-02T05:35:06;64.22;;;26.92;;
35326;SDS011;21436;52.348;20.928;2024-03-02T05:37:36;66.80;;;29.98;;
35326;SDS011;21436;52.348;20.928;2024-03-02T05:40:06;64.22;;;28.45;;
35326;SDS011;21436;52.348;20.928;2024-03-02T05:42:35;65.93;;;29.50;;
35326;SDS011;21436;52.348;20.928;2024-03-02T05:45:04;65.53;;;28.85;;
35326;SDS011;21436;52.348;20.928;2024-03-02T05:47:33;70.15;;;29.88;;
35326;SDS011;21436;52.348;20.928;2024-03-02T05:50:01;65.13;;;29.45;;
35326;SDS011;21436;52.348;20.928;2024-03-02T05:52:31;61.05;;;29.25;;
35326;SDS011;21436;52.348;20.928;2024-03-02T05:55:00;62.65;;;27.23;;
35326;SDS011;21436;52.348;20.928;2024-03-02T05:57:29;65.00;;;27.50;;
35326;SDS011;21436;52.348;20.928;2024-03-02T06:00:20;58.40;;;28.30;;
35326;SDS011;21436;52.348;20.928;2024-03-02T06:02:50;63.90;;;29.38;;
35326;SDS011;21436;52.348;20.928;2024-03-02T06:05:19;67.85;;;29.23;;
35326;SDS011;21436;52.348;20.928;2024-03-02T06:08:33;63.15;;;27.70;;
35326;SDS011;21436;52.348;20.928;2024-03-02T06:11:04;66.78;;;28.98;;
35326;SDS011;21436;52.348;20.928;2024-03-02T06:13:36;53.90;;;26.60;;
35326;SDS011;21436;52.348;20.928;2024-03-02T06:16:05;62.35;;;27.23;;
35326;SDS011;21436;52.348;20.928;2024-03-02T06:18:33;65.20;;;28.45;;
35326;SDS011;21436;52.348;20.928;2024-03-02T06:21:02;69.43;;;30.40;;
35326;SDS011;21436;52.348;20.928;2024-03-02T06:23:31;65.47;;;29.65;;
35326;SDS011;21436;52.348;20.928;2024-03-02T06:26:01;71.90;;;27.60;;
35326;SDS011;21436;52.348;20.928;2024-03-02T06:28:32;67.28;;;28.13;;
35326;SDS011;21436;52.348;20.928;2024-03-02T06:31:01;70.10;;;29.30;;
35326;SDS011;21436;52.348;20.928;2024-03-02T06:33:30;62.13;;;26.42;;
35326;SDS011;21436;52.348;20.928;2024-03-02T06:35:59;63.90;;;28.08;;
35326;SDS011;21436;52.348;20.928;2024-03-02T06:38:27;66.05;;;27.98;;
35326;SDS011;21436;52.348;20.928;2024-03-02T06:40:56;68.57;;;29.83;;
35326;SDS011;21436;52.348;20.928;2024-03-02T06:43:25;74.78;;;30.25;;
35326;SDS011;21436;52.348;20.928;2024-03-02T06:45:53;66.72;;;30.60;;
35326;SDS011;21436;52.348;20.928;2024-03-02T06:48:21;64.13;;;28.70;;
35326;SDS011;21436;52.348;20.928;2024-03-02T06:50:50;77.07;;;29.38;;
35326;SDS011;21436;52.348;20.928;2024-03-02T06:53:20;63.17;;;29.42;;
35326;SDS011;21436;52.348;20.928;2024-03-02T06:55:50;60.45;;;28.48;;
35326;SDS011;21436;52.348;20.928;2024-03-02T06:58:19;62.30;;;28.58;;
35326;SDS011;21436;52.348;20.928;2024-03-02T07:00:47;63.30;;;25.80;;
35326;SDS011;21436;52.348;20.928;2024-03-02T07:03:16;68.85;;;27.08;;
35326;SDS011;21436;52.348;20.928;2024-03-02T07:05:45;63.95;;;26.90;;
35326;SDS011;21436;52.348;20.928;2024-03-02T07:08:13;62.88;;;27.77;;
35326;SDS011;21436;52.348;20.928;2024-03-02T07:10:42;69.32;;;27.35;;
35326;SDS011;21436;52.348;20.928;2024-03-02T07:13:10;59.60;;;26.83;;
35326;SDS011;21436;52.348;20.928;2024-03-02T07:15:39;57.90;;;24.92;;
35326;SDS011;21436;52.348;20.928;2024-03-02T07:18:27;58.15;;;26.35;;
35326;SDS011;21436;52.348;20.928;2024-03-02T07:20:55;58.22;;;26.17;;
35326;SDS011;21436;52.348;20.928;2024-03-02T07:23:23;59.58;;;26.90;;
35326;SDS011;21436;52.348;20.928;2024-03-02T07:25:54;57.15;;;25.52;;
35326;SDS011;21436;52.348;20.928;2024-03-02T07:28:27;56.90;;;24.70;;
35326;SDS011;21436;52.348;20.928;2024-03-02T07:31:02;60.97;;;26.02;;
35326;SDS011;21436;52.348;20.928;2024-03-02T07:33:33;55.70;;;24.35;;
35326;SDS011;21436;52.348;20.928;2024-03-02T07:36:01;61.88;;;25.80;;
35326;SDS011;21436;52.348;20.928;2024-03-02T07:38:32;54.17;;;24.40;;
35326;SDS011;21436;52.348;20.928;2024-03-02T07:41:03;59.55;;;24.63;;
35326;SDS011;21436;52.348;20.928;2024-03-02T07:43:32;59.83;;;25.95;;
35326;SDS011;21436;52.348;20.928;2024-03-02T07:46:03;63.15;;;25.52;;
35326;SDS011;21436;52.348;20.928;2024-03-02T07:48:32;51.83;;;24.10;;
35326;SDS011;21436;52.348;20.928;2024-03-02T07:51:00;57.13;;;24.20;;
35326;SDS011;21436;52.348;20.928;2024-03-02T07:53:30;52.83;;;24.30;;
35326;SDS011;21436;52.348;20.928;2024-03-02T07:55:59;56.70;;;24.25;;
35326;SDS011;21436;52.348;20.928;2024-03-02T07:58:30;56.42;;;24.05;;
35326;SDS011;21436;52.348;20.928;2024-03-02T08:00:59;68.55;;;28.85;;
35326;SDS011;21436;52.348;20.928;2024-03-02T08:03:30;53.63;;;24.52;;
35326;SDS011;21436;52.348;20.928;2024-03-02T08:05:59;50.50;;;23.75;;
35326;SDS011;21436;52.348;20.928;2024-03-02T08:08:29;53.28;;;24.55;;
35326;SDS011;21436;52.348;20.928;2024-03-02T08:10:58;53.22;;;24.58;;
35326;SDS011;21436;52.348;20.928;2024-03-02T08:13:29;54.17;;;24.13;;
35326;SDS011;21436;52.348;20.928;2024-03-02T08:15:57;61.40;;;23.85;;
35326;SDS011;21436;52.348;20.928;2024-03-02T08:18:26;54.25;;;23.75;;
35326;SDS011;21436;52.348;20.928;2024-03-02T08:20:54;48.88;;;22.27;;
35326;SDS011;21436;52.348;20.928;2024-03-02T08:23:24;53.15;;;22.63;;
35326;SDS011;21436;52.348;20.928;2024-03-02T08:25:52;52.72;;;22.98;;
35326;SDS011;21436;52.348;20.928;2024-03-02T08:28:21;56.63;;;24.23;;
35326;SDS011;21436;52.348;20.928;2024-03-02T08:30:50;51.53;;;22.50;;
35326;SDS011;21436;52.348;20.928;2024-03-02T08:33:19;45.92;;;22.42;;
35326;SDS011;21436;52.348;20.928;2024-03-02T08:35:47;53.80;;;24.92;;
35326;SDS011;21436;52.348;20.928;2024-03-02T08:38:15;57.88;;;23.67;;
35326;SDS011;21436;52.348;20.928;2024-03-02T08:40:44;47.88;;;21.60;;
35326;SDS011;21436;52.348;20.928;2024-03-02T08:43:12;53.47;;;22.75;;
35326;SDS011;21436;52.348;20.928;2024-03-02T08:45:41;49.55;;;21.73;;
35326;SDS011;21436;52.348;20.928;2024-03-02T08:48:10;50.67;;;21.83;;
35326;SDS011;21436;52.348;20.928;2024-03-02T08:50:39;49.63;;;23.13;;
35326;SDS011;21436;52.348;20.928;2024-03-02T08:53:07;50.08;;;22.52;;
35326;SDS011;21436;52.348;20.928;2024-03-02T08:55:36;49.55;;;22.60;;
35326;SDS011;21436;52.348;20.928;2024-03-02T08:58:04;54.20;;;23.48;;
35326;SDS011;21436;52.348;20.928;2024-03-02T09:00:33;46.88;;;22.55;;
35326;SDS011;21436;52.348;20.928;2024-03-02T09:03:01;51.55;;;23.45;;
35326;SDS011;21436;52.348;20.928;2024-03-02T09:05:29;55.47;;;24.15;;
35326;SDS011;21436;52.348;20.928;2024-03-02T09:07:58;53.88;;;23.15;;
35326;SDS011;21436;52.348;20.928;2024-03-02T09:10:27;63.58;;;24.48;;
35326;SDS011;21436;52.348;20.928;2024-03-02T09:12:55;51.95;;;22.48;;
35326;SDS011;21436;52.348;20.928;2024-03-02T09:15:23;51.55;;;22.98;;
35326;SDS011;21436;52.348;20.928;2024-03-02T09:17:52;49.08;;;22.40;;
35326;SDS011;21436;52.348;20.928;2024-03-02T09:20:20;54.22;;;22.27;;
35326;SDS011;21436;52.348;20.928;2024-03-02T09:22:48;47.95;;;22.23;;
35326;SDS011;21436;52.348;20.928;2024-03-02T09:25:17;50.88;;;22.13;;
35326;SDS011;21436;52.348;20.928;2024-03-02T09:27:45;53.40;;;22.10;;
35326;SDS011;21436;52.348;20.928;2024-03-02T09:30:13;56.35;;;22.80;;
35326;SDS011;21436;52.348;20.928;2024-03-02T09:32:42;54.60;;;22.83;;
35326;SDS011;21436;52.348;20.928;2024-03-02T09:35:10;45.78;;;19.92;;
35326;SDS011;21436;52.348;20.928;2024-03-02T09:37:39;51.00;;;21.92;;
35326;SDS011;21436;52.348;20.928;2024-03-02T09:40:08;54.17;;;22.42;;
35326;SDS011;21436;52.348;20.928;2024-03-02T09:42:37;50.90;;;23.35;;
35326;SDS011;21436;52.348;20.928;2024-03-02T09:45:06;55.95;;;23.42;;
35326;SDS011;21436;52.348;20.928;2024-03-02T09:47:35;54.28;;;22.80;;
35326;SDS011;21436;52.348;20.928;2024-03-02T09:50:03;55.63;;;23.60;;
35326;SDS011;21436;52.348;20.928;2024-03-02T09:52:32;50.47;;;20.85;;
35326;SDS011;21436;52.348;20.928;2024-03-02T09:55:00;51.10;;;22.52;;
35326;SDS011;21436;52.348;20.928;2024-03-02T09:57:29;45.97;;;21.23;;
35326;SDS011;21436;52.348;20.928;2024-03-02T09:59:57;46.22;;;20.48;;
35326;SDS011;21436;52.348;20.928;2024-03-02T10:02:26;47.83;;;21.15;;
35326;SDS011;21436;52.348;20.928;2024-03-02T10:04:54;52.92;;;21.17;;
35326;SDS011;21436;52.348;20.928;2024-03-02T10:07:24;53.03;;;24.80;;
35326;SDS011;21436;52.348;20.928;2024-03-02T10:09:52;56.72;;;24.63;;
35326;SDS011;21436;52.348;20.928;2024-03-02T10:12:21;51.22;;;22.65;;
35326;SDS011;21436;52.348;20.928;2024-03-02T10:14:50;51.22;;;22.75;;
35326;SDS011;21436;52.348;20.928;2024-03-02T10:17:35;49.33;;;22.73;;
35326;SDS011;21436;52.348;20.928;2024-03-02T10:20:25;49.13;;;21.88;;
35326;SDS011;21436;52.348;20.928;2024-03-02T10:22:53;47.05;;;21.02;;
35326;SDS011;21436;52.348;20.928;2024-03-02T10:25:28;56.13;;;23.52;;
35326;SDS011;21436;52.348;20.928;2024-03-02T10:28:17;54.17;;;24.35;;
35326;SDS011;21436;52.348;20.928;2024-03-02T10:30:47;48.13;;;21.48;;
35326;SDS011;21436;52.348;20.928;2024-03-02T10:33:17;50.45;;;22.20;;
35326;SDS011;21436;52.348;20.928;2024-03-02T10:35:45;48.75;;;21.35;;
35326;SDS011;21436;52.348;20.928;2024-03-02T10:38:14;49.90;;;22.40;;
35326;SDS011;21436;52.348;20.928;2024-03-02T10:40:46;47.20;;;21.63;;
35326;SDS011;21436;52.348;20.928;2024-03-02T10:43:16;49.83;;;22.60;;
35326;SDS011;21436;52.348;20.928;2024-03-02T10:45:46;51.65;;;21.73;;
35326;SDS011;21436;52.348;20.928;2024-03-02T10:50:47;57.80;;;23.75;;
35326;SDS011;21436;52.348;20.928;2024-03-02T10:53:15;59.17;;;25.45;;
35326;SDS011;21436;52.348;20.928;2024-03-02T10:55:43;52.15;;;22.50;;
35326;SDS011;21436;52.348;20.928;2024-03-02T10:58:14;58.40;;;24.63;;
35326;SDS011;21436;52.348;20.928;2024-03-02T11:00:42;46.60;;;22.17;;
35326;SDS011;21436;52.348;20.928;2024-03-02T11:03:13;44.08;;;22.50;;
35326;SDS011;21436;52.348;20.928;2024-03-02T11:05:45;47.63;;;20.92;;
35326;SDS011;21436;52.348;20.928;2024-03-02T11:13:23;46.30;;;21.75;;
35326;SDS011;21436;52.348;20.928;2024-03-02T11:16:17;52.38;;;21.50;;
35326;SDS011;21436;52.348;20.928;2024-03-02T11:19:03;49.45;;;22.65;;
35326;SDS011;21436;52.348;20.928;2024-03-02T11:21:40;49.13;;;22.13;;
35326;SDS011;21436;52.348;20.928;2024-03-02T11:26:50;51.63;;;21.25;;
35326;SDS011;21436;52.348;20.928;2024-03-02T11:34:57;45.83;;;22.27;;
35326;SDS011;21436;52.348;20.928;2024-03-02T11:37:25;45.38;;;20.92;;
35326;SDS011;21436;52.348;20.928;2024-03-02T11:39:54;50.75;;;21.40;;
35326;SDS011;21436;52.348;20.928;2024-03-02T11:42:22;45.03;;;20.90;;
35326;SDS011;21436;52.348;20.928;2024-03-02T11:44:51;50.15;;;22.45;;
35326;SDS011;21436;52.348;20.928;2024-03-02T11:47:24;42.58;;;19.67;;
35326;SDS011;21436;52.348;20.928;2024-03-02T11:50:02;53.25;;;22.30;;
35326;SDS011;21436;52.348;20.928;2024-03-02T11:52:34;45.90;;;21.77;;
35326;SDS011;21436;52.348;20.928;2024-03-02T11:55:03;42.78;;;20.23;;
35326;SDS011;21436;52.348;20.928;2024-03-02T11:57:33;44.80;;;21.85;;
35326;SDS011;21436;52.348;20.928;2024-03-02T12:00:02;42.30;;;21.30;;
35326;SDS011;21436;52.348;20.928;2024-03-02T12:02:32;46.80;;;20.63;;
35326;SDS011;21436;52.348;20.928;2024-03-02T12:05:02;59.88;;;22.65;;
35326;SDS011;21436;52.348;20.928;2024-03-02T12:07:31;45.15;;;20.50;;
35326;SDS011;21436;52.348;20.928;2024-03-02T12:10:00;49.60;;;22.08;;
35326;SDS011;21436;52.348;20.928;2024-03-02T12:12:30;50.53;;;23.30;;
35326;SDS011;21436;52.348;20.928;2024-03-02T12:14:59;46.42;;;22.38;;
35326;SDS011;21436;52.348;20.928;2024-03-02T12:17:28;45.25;;;22.33;;
35326;SDS011;21436;52.348;20.928;2024-03-02T12:19:57;51.47;;;23.10;;
35326;SDS011;21436;52.348;20.928;2024-03-02T12:22:26;53.97;;;23.77;;
35326;SDS011;21436;52.348;20.928;2024-03-02T12:24:55;49.75;;;23.65;;
35326;SDS011;21436;52.348;20.928;2024-03-02T12:27:23;50.13;;;22.67;;
35326;SDS011;21436;52.348;20.928;2024-03-02T12:29:57;43.67;;;22.23;;
35326;SDS011;21436;52.348;20.928;2024-03-02T12:32:25;52.53;;;23.58;;
35326;SDS011;21436;52.348;20.928;2024-03-02T12:34:55;51.28;;;23.95;;
35326;SDS011;21436;52.348;20.928;2024-03-02T12:37:23;45.42;;;20.77;;
35326;SDS011;21436;52.348;20.928;2024-03-02T12:39:52;47.55;;;24.88;;
35326;SDS011;21436;52.348;20.928;2024-03-02T12:42:21;53.92;;;25.92;;
35326;SDS011;21436;52.348;20.928;2024-03-02T12:44:51;59.03;;;26.33;;
35326;SDS011;21436;52.348;20.928;2024-03-02T12:47:22;57.58;;;26.75;;
35326;SDS011;21436;52.348;20.928;2024-03-02T12:49:51;56.67;;;27.17;;
35326;SDS011;21436;52.348;20.928;2024-03-02T12:52:20;55.00;;;25.60;;
35326;SDS011;21436;52.348;20.928;2024-03-02T12:54:49;55.60;;;27.27;;
35326;SDS011;21436;52.348;20.928;2024-03-02T12:57:18;52.47;;;27.33;;
35326;SDS011;21436;52.348;20.928;2024-03-02T12:59:48;53.50;;;26.63;;
35326;SDS011;21436;52.348;20.928;2024-03-02T13:02:26;54.13;;;27.15;;
35326;SDS011;21436;52.348;20.928;2024-03-02T13:04:57;58.50;;;26.02;;
35326;SDS011;21436;52.348;20.928;2024-03-02T13:07:25;62.17;;;30.77;;
35326;SDS011;21436;52.348;20.928;2024-03-02T13:09:55;66.15;;;29.27;;
35326;SDS011;21436;52.348;20.928;2024-03-02T13:12:24;63.47;;;28.88;;
35326;SDS011;21436;52.348;20.928;2024-03-02T13:14:53;56.00;;;28.77;;
35326;SDS011;21436;52.348;20.928;2024-03-02T13:17:22;62.55;;;30.25;;
35326;SDS011;21436;52.348;20.928;2024-03-02T13:19:57;67.22;;;32.17;;
35326;SDS011;21436;52.348;20.928;2024-03-02T13:22:26;63.17;;;29.35;;
35326;SDS011;21436;52.348;20.928;2024-03-02T13:24:55;64.57;;;29.20;;
35326;SDS011;21436;52.348;20.928;2024-03-02T13:27:23;61.13;;;29.80;;
35326;SDS011;21436;52.348;20.928;2024-03-02T13:29:52;61.45;;;29.75;;
35326;SDS011;21436;52.348;20.928;2024-03-02T13:32:20;59.53;;;29.83;;
35326;SDS011;21436;52.348;20.928;2024-03-02T13:34:51;60.97;;;29.45;;
35326;SDS011;21436;52.348;20.928;2024-03-02T13:37:20;54.22;;;27.77;;
35326;SDS011;21436;52.348;20.928;2024-03-02T13:39:49;58.03;;;29.10;;
35326;SDS011;21436;52.348;20.928;2024-03-02T13:42:19;55.38;;;28.02;;
35326;SDS011;21436;52.348;20.928;2024-03-02T13:44:48;57.17;;;28.67;;
35326;SDS011;21436;52.348;20.928;2024-03-02T13:47:18;60.00;;;28.55;;
35326;SDS011;21436;52.348;20.928;2024-03-02T13:49:47;53.83;;;28.23;;
35326;SDS011;21436;52.348;20.928;2024-03-02T13:52:16;61.50;;;28.10;;
35326;SDS011;21436;52.348;20.928;2024-03-02T13:54:46;57.55;;;29.25;;
35326;SDS011;21436;52.348;20.928;2024-03-02T13:57:15;57.63;;;28.88;;
35326;SDS011;21436;52.348;20.928;2024-03-02T13:59:51;59.78;;;28.65;;
35326;SDS011;21436;52.348;20.928;2024-03-02T14:02:20;58.15;;;27.20;;
35326;SDS011;21436;52.348;20.928;2024-03-02T14:04:48;55.55;;;27.67;;
35326;SDS011;21436;52.348;20.928;2024-03-02T14:07:18;58.65;;;27.38;;
35326;SDS011;21436;52.348;20.928;2024-03-02T14:09:46;61.50;;;28.15;;
35326;SDS011;21436;52.348;20.928;2024-03-02T14:12:15;57.25;;;27.10;;
35326;SDS011;21436;52.348;20.928;2024-03-02T14:14:44;52.17;;;27.88;;
35326;SDS011;21436;52.348;20.928;2024-03-02T14:17:13;63.15;;;28.98;;
35326;SDS011;21436;52.348;20.928;2024-03-02T14:19:44;50.60;;;26.25;;
35326;SDS011;21436;52.348;20.928;2024-03-02T14:22:12;58.70;;;26.75;;
35326;SDS011;21436;52.348;20.928;2024-03-02T14:24:45;64.80;;;29.02;;
35326;SDS011;21436;52.348;20.928;2024-03-02T14:27:15;56.17;;;28.65;;
35326;SDS011;21436;52.348;20.928;2024-03-02T14:30:04;55.15;;;28.15;;
35326;SDS011;21436;52.348;20.928;2024-03-02T14:32:34;61.00;;;30.50;;
35326;SDS011;21436;52.348;20.928;2024-03-02T14:35:03;63.00;;;28.33;;
35326;SDS011;21436;52.348;20.928;2024-03-02T14:37:32;59.72;;;28.88;;
35326;SDS011;21436;52.348;20.928;2024-03-02T14:40:01;56.28;;;28.52;;